Richard Maersk — OYIZ2 — position and weather

sailwx.info

Track history (hours):
 
Tides and Currents Weather Stations Pressure Air Temp Water Temp Dewpoint Dewpoint Depression Visibility Wind Speed Wind Dir Waves Ship Positions

Richard Maersk

Last reported at 2015-May-23 00:33 UTC. Time now 2015-May-27 01:51 UTC.
Position N 26°05' W 079°28'.

Length 171 m; draft 10.8 m.

Type: Ship (hazmat cat A). MMSI: 219967000.

Date/timePositionNaut miles runAvg speedWind from/ knotsBaromVisibWave heightAir tempDewpointWater temp
2015-May-23 00:33N 26°05' W 079°28'1615.5
2015-May-22 23:32N 25°49' W 079°30'  
2015-May-20 00:27N 29°47' W 090°01'9 9.0
2015-May-19 23:30N 29°54' W 089°55'0 0.0
2015-May-19 20:16N 29°54' W 089°55'0 0.0
2015-May-19 18:25N 29°54' W 089°55'0 0.0
2015-May-19 14:28N 29°54' W 089°55'0 0.0
2015-May-19 11:07N 29°54' W 089°55'0 0.0
2015-May-19 08:04N 29°54' W 089°55'0 0.3
2015-May-19 07:17N 29°54' W 089°54'7 8.8
2015-May-19 06:29N 29°57' W 090°02'10 8.9
2015-May-19 05:23N 29°55' W 090°13'51 8.6
2015-May-18 23:31N 30°15' W 091°07'5 4.8
2015-May-18 22:32N 30°19' W 091°09'7 7.5
2015-May-18 21:33N 30°26' W 091°12'1 0.7
2015-May-18 20:29N 30°26' W 091°12'0 0.0
2015-May-18 19:29N 30°26' W 091°12'0 0.0
2015-May-18 18:29N 30°26' W 091°12'0 0.0
2015-May-18 17:29N 30°26' W 091°12'0 0.0
2015-May-18 16:29N 30°26' W 091°12'0 0.0
2015-May-18 15:29N 30°26' W 091°12'0 0.0
2015-May-18 14:29N 30°26' W 091°12'0 0.0
2015-May-18 13:29N 30°26' W 091°12'0 0.0
2015-May-18 12:29N 30°26' W 091°12'0 0.0
2015-May-18 11:29N 30°26' W 091°12'0 0.0
2015-May-18 10:29N 30°26' W 091°12'0 0.0
2015-May-18 09:29N 30°26' W 091°12'0 0.0
2015-May-18 08:29N 30°26' W 091°12'0 0.0
2015-May-18 07:29N 30°26' W 091°12'0 0.0
2015-May-18 06:29N 30°26' W 091°12'0 0.0
2015-May-18 05:29N 30°26' W 091°12'0 0.0
2015-May-18 04:29N 30°26' W 091°12'0 0.0
2015-May-18 03:29N 30°26' W 091°12'0 0.0
2015-May-18 02:29N 30°26' W 091°12'0 0.0
2015-May-18 01:23N 30°26' W 091°12'0 0.0
2015-May-18 00:29N 30°26' W 091°12'0 0.0
2015-May-17 23:29N 30°26' W 091°12'0 0.0
2015-May-17 22:29N 30°26' W 091°12'0 0.0
2015-May-17 21:29N 30°26' W 091°12'0 0.0
2015-May-17 20:29N 30°26' W 091°12'0 0.0
2015-May-17 19:29N 30°26' W 091°12'0 0.0
2015-May-17 18:29N 30°26' W 091°12'0 0.0
2015-May-17 17:23N 30°26' W 091°12'0 0.0
2015-May-17 16:29N 30°26' W 091°12'0 0.0
2015-May-17 15:29N 30°26' W 091°12'0 0.0
2015-May-17 14:29N 30°26' W 091°12'0 0.0
2015-May-17 13:29N 30°26' W 091°12'0 0.0
2015-May-17 12:29N 30°26' W 091°12'0 0.0
2015-May-17 11:29N 30°26' W 091°12'0 0.0
2015-May-17 10:29N 30°26' W 091°12'0 0.0
2015-May-17 09:29N 30°26' W 091°12'0 0.0
2015-May-17 08:29N 30°26' W 091°12'0 0.0
2015-May-17 07:23N 30°26' W 091°12'0 0.1
2015-May-17 06:33N 30°27' W 091°12'6 6.4
2015-May-17 05:34N 30°20' W 091°13'2 1.5
2015-May-17 04:33N 30°19' W 091°13'7 3.4
2015-May-17 02:33N 30°14' W 091°08'54 6.0
2015-May-16 17:28N 29°57' W 090°08'6 6.3
2015-May-16 16:32N 29°57' W 090°02'6 5.9
2015-May-16 15:28N 29°53' W 089°57'9 8.8
2015-May-16 14:25N 29°44' W 089°60'  
Track history (hours):
 
Tides and Currents Weather Stations Pressure Air Temp Water Temp Dewpoint Dewpoint Depression Visibility Wind Speed Wind Dir Waves Ship Positions

Richard Maersk

Last reported at 2015-May-23 00:33 UTC. Time now 2015-May-27 01:51 UTC.
Position N 26°05' W 079°28'.

Length 171 m; draft 10.8 m.

Type: Ship (hazmat cat A). MMSI: 219967000.

Date/timePositionNaut miles runAvg speedWind from/ knotsBaromVisibWave heightAir tempDewpointWater temp
2015-May-23 00:33N 26°05' W 079°28'1615.5
2015-May-22 23:32N 25°49' W 079°30'  
2015-May-20 00:27N 29°47' W 090°01'9 9.0
2015-May-19 23:30N 29°54' W 089°55'0 0.0
2015-May-19 20:16N 29°54' W 089°55'0 0.0
2015-May-19 18:25N 29°54' W 089°55'0 0.0
2015-May-19 14:28N 29°54' W 089°55'0 0.0
2015-May-19 11:07N 29°54' W 089°55'0 0.0
2015-May-19 08:04N 29°54' W 089°55'0 0.3
2015-May-19 07:17N 29°54' W 089°54'7 8.8
2015-May-19 06:29N 29°57' W 090°02'10 8.9
2015-May-19 05:23N 29°55' W 090°13'51 8.6
2015-May-18 23:31N 30°15' W 091°07'5 4.8
2015-May-18 22:32N 30°19' W 091°09'7 7.5
2015-May-18 21:33N 30°26' W 091°12'1 0.7
2015-May-18 20:29N 30°26' W 091°12'0 0.0
2015-May-18 19:29N 30°26' W 091°12'0 0.0
2015-May-18 18:29N 30°26' W 091°12'0 0.0
2015-May-18 17:29N 30°26' W 091°12'0 0.0
2015-May-18 16:29N 30°26' W 091°12'0 0.0
2015-May-18 15:29N 30°26' W 091°12'0 0.0
2015-May-18 14:29N 30°26' W 091°12'0 0.0
2015-May-18 13:29N 30°26' W 091°12'0 0.0
2015-May-18 12:29N 30°26' W 091°12'0 0.0
2015-May-18 11:29N 30°26' W 091°12'0 0.0
2015-May-18 10:29N 30°26' W 091°12'0 0.0
2015-May-18 09:29N 30°26' W 091°12'0 0.0
2015-May-18 08:29N 30°26' W 091°12'0 0.0
2015-May-18 07:29N 30°26' W 091°12'0 0.0
2015-May-18 06:29N 30°26' W 091°12'0 0.0
2015-May-18 05:29N 30°26' W 091°12'0 0.0
2015-May-18 04:29N 30°26' W 091°12'0 0.0
2015-May-18 03:29N 30°26' W 091°12'0 0.0
2015-May-18 02:29N 30°26' W 091°12'0 0.0
2015-May-18 01:23N 30°26' W 091°12'0 0.0
2015-May-18 00:29N 30°26' W 091°12'0 0.0
2015-May-17 23:29N 30°26' W 091°12'0 0.0
2015-May-17 22:29N 30°26' W 091°12'0 0.0
2015-May-17 21:29N 30°26' W 091°12'0 0.0
2015-May-17 20:29N 30°26' W 091°12'0 0.0
2015-May-17 19:29N 30°26' W 091°12'0 0.0
2015-May-17 18:29N 30°26' W 091°12'0 0.0
2015-May-17 17:23N 30°26' W 091°12'0 0.0
2015-May-17 16:29N 30°26' W 091°12'0 0.0
2015-May-17 15:29N 30°26' W 091°12'0 0.0
2015-May-17 14:29N 30°26' W 091°12'0 0.0
2015-May-17 13:29N 30°26' W 091°12'0 0.0
2015-May-17 12:29N 30°26' W 091°12'0 0.0
2015-May-17 11:29N 30°26' W 091°12'0 0.0
2015-May-17 10:29N 30°26' W 091°12'0 0.0
2015-May-17 09:29N 30°26' W 091°12'0 0.0
2015-May-17 08:29N 30°26' W 091°12'0 0.0
2015-May-17 07:23N 30°26' W 091°12'0 0.1
2015-May-17 06:33N 30°27' W 091°12'6 6.4
2015-May-17 05:34N 30°20' W 091°13'2 1.5
2015-May-17 04:33N 30°19' W 091°13'7 3.4
2015-May-17 02:33N 30°14' W 091°08'54 6.0
2015-May-16 17:28N 29°57' W 090°08'6 6.3
2015-May-16 16:32N 29°57' W 090°02'6 5.9
2015-May-16 15:28N 29°53' W 089°57'9 8.8
2015-May-16 14:25N 29°44' W 089°60'  

Dump ship's entire track history